createdAt,value
2023-01-19T00:00:55.809Z,3.62
2023-01-19T00:03:22.439Z,3.68
2023-01-19T00:05:50.874Z,3.66
2023-01-19T00:08:19.823Z,3.72
2023-01-19T00:10:48.925Z,3.72
2023-01-19T00:13:16.030Z,3.75
2023-01-19T00:15:43.380Z,3.72
2023-01-19T00:18:11.164Z,3.74
2023-01-19T00:20:39.368Z,3.71
2023-01-19T00:23:08.000Z,3.76
2023-01-19T00:25:34.992Z,3.76
2023-01-19T00:28:01.966Z,3.75
2023-01-19T00:30:29.034Z,3.74
2023-01-19T00:32:55.817Z,3.73
2023-01-19T00:35:24.795Z,3.78
2023-01-19T00:37:51.657Z,3.72
2023-01-19T00:40:18.606Z,3.74
2023-01-19T00:42:45.423Z,3.76
2023-01-19T00:45:17.413Z,3.80
2023-01-19T00:47:44.057Z,3.76
2023-01-19T00:50:12.341Z,3.74
2023-01-19T00:52:39.580Z,3.77
2023-01-19T00:55:08.282Z,3.75
2023-01-19T00:57:35.130Z,3.75
2023-01-19T01:00:01.835Z,3.78
2023-01-19T01:02:28.534Z,3.78
2023-01-19T01:04:56.767Z,3.75
2023-01-19T01:07:24.334Z,3.78
2023-01-19T01:09:51.306Z,3.75
2023-01-19T01:12:17.913Z,3.74
2023-01-19T01:14:44.611Z,3.74
2023-01-19T01:17:11.681Z,3.73
2023-01-19T01:19:40.847Z,3.74
2023-01-19T01:22:09.272Z,3.69
2023-01-19T01:24:36.081Z,3.74
2023-01-19T01:27:02.643Z,3.69
2023-01-19T01:29:29.190Z,3.69
2023-01-19T01:31:55.819Z,3.68
2023-01-19T01:34:22.385Z,3.69
2023-01-19T01:36:48.950Z,3.69
2023-01-19T01:39:15.542Z,3.66
2023-01-19T01:41:42.115Z,3.64
2023-01-19T01:44:49.557Z,3.66
2023-01-19T01:47:44.489Z,3.60
2023-01-19T01:50:27.894Z,3.56
2023-01-19T01:53:07.336Z,3.62
2023-01-19T01:55:40.023Z,3.61
2023-01-19T01:58:09.370Z,3.55
2023-01-19T02:00:57.871Z,3.54
2023-01-19T02:03:26.203Z,3.55
2023-01-19T02:05:59.340Z,3.53
2023-01-19T02:08:56.060Z,3.46
2023-01-19T02:11:44.065Z,3.40
2023-01-19T02:14:10.795Z,3.35
2023-01-19T02:16:37.986Z,3.29
2023-01-19T02:19:07.344Z,3.31
2023-01-19T02:21:46.749Z,3.26
2023-01-19T02:24:13.711Z,3.25
2023-01-19T02:26:43.989Z,3.26
2023-01-19T02:29:13.653Z,3.27
2023-01-19T02:31:41.032Z,3.22
2023-01-19T02:34:10.857Z,3.18
2023-01-19T02:37:02.087Z,3.24
2023-01-19T02:39:36.485Z,3.16
2023-01-19T02:42:08.260Z,3.07
2023-01-19T02:44:37.019Z,3.07
2023-01-19T02:47:04.944Z,2.97
2023-01-19T02:49:31.968Z,2.97
2023-01-19T02:52:01.521Z,2.95
2023-01-19T02:54:33.407Z,2.84
2023-01-19T02:57:03.140Z,2.78
2023-01-19T02:59:50.180Z,2.79
2023-01-19T03:02:22.901Z,2.80
2023-01-19T03:05:09.777Z,2.81
2023-01-19T03:07:50.693Z,2.78
2023-01-19T03:10:21.313Z,2.74
2023-01-19T03:13:14.466Z,2.70
2023-01-19T03:15:50.408Z,2.73
2023-01-19T03:18:26.602Z,2.73
2023-01-19T03:21:01.130Z,2.60
2023-01-19T03:23:31.763Z,2.59
2023-01-19T03:26:00.602Z,2.63
2023-01-19T03:28:30.313Z,2.59
2023-01-19T03:31:03.152Z,2.55
2023-01-19T03:33:34.971Z,2.44
2023-01-19T03:36:07.722Z,2.35
2023-01-19T03:38:37.588Z,2.26
2023-01-19T03:41:09.618Z,2.24
2023-01-19T03:43:41.317Z,2.26
2023-01-19T03:46:12.490Z,2.18
2023-01-19T03:48:39.361Z,2.14
2023-01-19T03:51:08.575Z,2.14
2023-01-19T03:53:35.202Z,2.03
2023-01-19T03:56:01.901Z,2.04
2023-01-19T03:58:28.766Z,2.00
2023-01-19T04:00:55.354Z,1.95
2023-01-19T04:03:22.074Z,2.03
2023-01-19T04:05:51.262Z,1.98
2023-01-19T04:08:20.169Z,1.94
2023-01-19T04:10:46.750Z,1.81
2023-01-19T04:13:13.371Z,1.79
2023-01-19T04:15:40.032Z,1.84
2023-01-19T04:18:07.100Z,1.77
2023-01-19T04:20:33.986Z,1.71
2023-01-19T04:23:02.753Z,1.73
2023-01-19T04:25:29.673Z,1.72
2023-01-19T04:27:58.366Z,1.69
2023-01-19T04:30:27.734Z,1.69
2023-01-19T04:32:55.555Z,1.70
2023-01-19T04:35:23.620Z,1.67
2023-01-19T04:37:52.037Z,1.64
2023-01-19T04:40:20.840Z,1.68
2023-01-19T04:42:50.105Z,1.67
2023-01-19T04:45:17.455Z,1.67
2023-01-19T04:47:44.082Z,1.67
2023-01-19T04:50:11.673Z,1.68
2023-01-19T04:52:38.587Z,1.69
2023-01-19T04:55:07.017Z,1.61
2023-01-19T04:57:33.673Z,1.65
2023-01-19T05:00:00.335Z,1.65
2023-01-19T05:02:26.991Z,1.67
2023-01-19T05:04:53.905Z,1.68
2023-01-19T05:07:20.545Z,1.71
2023-01-19T05:09:47.167Z,1.63
2023-01-19T05:12:13.767Z,1.73
2023-01-19T05:14:40.360Z,1.70
2023-01-19T05:17:07.224Z,1.69
2023-01-19T05:19:33.819Z,1.73
2023-01-19T05:22:02.819Z,1.74
2023-01-19T05:24:29.638Z,1.80
2023-01-19T05:26:56.339Z,1.77
2023-01-19T05:29:23.037Z,1.76
2023-01-19T05:31:51.221Z,1.78
2023-01-19T05:34:18.093Z,1.82
2023-01-19T05:36:44.846Z,1.82
2023-01-19T05:39:11.506Z,1.74
2023-01-19T05:41:38.087Z,1.78
2023-01-19T05:44:04.816Z,1.75
2023-01-19T05:46:31.384Z,1.81
2023-01-19T05:49:00.951Z,1.80
2023-01-19T05:51:31.911Z,1.82
2023-01-19T05:53:58.544Z,1.85
2023-01-19T05:56:27.531Z,1.83
2023-01-19T05:58:54.136Z,1.86
2023-01-19T06:01:20.711Z,1.87
2023-01-19T06:03:49.447Z,1.84
2023-01-19T06:06:17.220Z,1.88
2023-01-19T06:08:44.747Z,1.97
2023-01-19T06:11:11.804Z,1.96
2023-01-19T06:13:42.268Z,1.95
2023-01-19T06:16:09.236Z,1.98
2023-01-19T06:18:40.337Z,1.99
2023-01-19T06:21:09.439Z,1.98
2023-01-19T06:23:36.478Z,1.99
2023-01-19T06:26:03.995Z,1.98
2023-01-19T06:28:30.735Z,1.96
2023-01-19T06:30:57.636Z,2.00
2023-01-19T06:33:25.079Z,2.02
2023-01-19T06:35:52.261Z,2.01
2023-01-19T06:38:19.444Z,2.05
2023-01-19T06:40:56.664Z,2.04
2023-01-19T06:43:24.819Z,2.08
2023-01-19T06:45:51.794Z,2.10
2023-01-19T06:48:19.025Z,2.07
2023-01-19T06:50:46.292Z,2.09
2023-01-19T06:53:13.705Z,2.17
2023-01-19T06:55:40.508Z,2.25
2023-01-19T06:58:07.318Z,2.30
2023-01-19T07:00:36.016Z,2.37
2023-01-19T07:03:02.981Z,2.32
2023-01-19T07:05:29.760Z,2.36
2023-01-19T07:07:59.541Z,2.39
2023-01-19T07:10:26.120Z,2.39
2023-01-19T07:13:13.869Z,2.49
2023-01-19T07:15:41.065Z,2.59
2023-01-19T07:18:16.566Z,2.55
2023-01-19T07:20:44.389Z,2.57
2023-01-19T07:23:12.792Z,2.58
2023-01-19T07:25:42.273Z,2.67
2023-01-19T07:28:09.244Z,2.60
2023-01-19T07:30:37.924Z,2.64
2023-01-19T07:33:04.583Z,2.70
2023-01-19T07:35:31.921Z,2.70
2023-01-19T07:37:59.318Z,2.73
2023-01-19T07:40:26.005Z,2.75
2023-01-19T07:42:52.709Z,2.74
2023-01-19T07:45:20.877Z,2.83
2023-01-19T07:47:49.941Z,2.86
2023-01-19T07:50:25.722Z,2.91
2023-01-19T07:52:53.632Z,2.88
2023-01-19T07:55:22.668Z,2.87
2023-01-19T07:57:51.099Z,2.87
2023-01-19T08:00:21.860Z,3.00
2023-01-19T08:02:52.179Z,2.94
2023-01-19T08:05:19.652Z,3.00
2023-01-19T08:07:46.840Z,2.97
2023-01-19T08:10:14.997Z,3.02
2023-01-19T08:12:42.536Z,2.99
2023-01-19T08:15:10.426Z,3.10
2023-01-19T08:17:37.417Z,2.96
2023-01-19T08:20:04.591Z,3.03
2023-01-19T08:22:31.194Z,3.14
2023-01-19T08:24:57.784Z,3.07
2023-01-19T08:27:26.255Z,3.17
2023-01-19T08:29:54.359Z,3.20
2023-01-19T08:32:21.046Z,3.27
2023-01-19T08:34:48.776Z,3.20
2023-01-19T08:37:17.649Z,3.28
2023-01-19T08:39:46.926Z,3.33
2023-01-19T08:42:13.484Z,3.35
2023-01-19T08:44:49.712Z,3.36
2023-01-19T08:47:25.530Z,3.31
2023-01-19T08:49:52.698Z,3.30
2023-01-19T08:52:19.307Z,3.15
2023-01-19T08:54:48.503Z,3.30
2023-01-19T08:57:16.240Z,3.17
2023-01-19T08:59:45.107Z,3.19
2023-01-19T09:02:12.146Z,3.15
2023-01-19T09:04:40.562Z,3.13
2023-01-19T09:07:07.241Z,3.32
2023-01-19T09:09:33.899Z,3.29
2023-01-19T09:12:02.796Z,3.28
2023-01-19T09:14:31.721Z,3.18
2023-01-19T09:16:59.253Z,3.22
2023-01-19T09:19:26.185Z,3.19
2023-01-19T09:21:54.891Z,3.29
2023-01-19T09:24:23.368Z,3.31
2023-01-19T09:26:49.963Z,3.31
2023-01-19T09:29:18.129Z,3.39
2023-01-19T09:31:45.637Z,3.40
2023-01-19T09:34:12.729Z,3.40
2023-01-19T09:36:41.375Z,3.39
2023-01-19T09:39:09.095Z,3.25
2023-01-19T09:41:36.658Z,3.38
2023-01-19T09:44:04.022Z,3.30
2023-01-19T09:46:44.372Z,3.42
2023-01-19T09:49:33.122Z,3.46
2023-01-19T09:52:00.126Z,3.42
2023-01-19T09:54:56.873Z,3.58
2023-01-19T09:57:35.102Z,3.57
2023-01-19T10:00:01.870Z,3.57
2023-01-19T10:02:28.415Z,3.63
2023-01-19T10:04:56.448Z,3.79
2023-01-19T10:07:40.036Z,3.87
2023-01-19T10:10:15.411Z,3.89
2023-01-19T10:13:02.548Z,3.65
2023-01-19T10:15:41.473Z,3.66
2023-01-19T10:18:29.324Z,3.60
2023-01-19T10:21:12.411Z,3.55
2023-01-19T10:23:50.645Z,3.51
2023-01-19T10:26:24.232Z,3.61
2023-01-19T10:28:55.810Z,3.51
2023-01-19T10:31:24.295Z,3.45
2023-01-19T10:33:52.571Z,3.42
2023-01-19T10:36:24.267Z,3.49
2023-01-19T10:38:54.327Z,3.39
2023-01-19T10:41:42.832Z,3.48
2023-01-19T10:44:10.962Z,3.38
2023-01-19T10:46:47.736Z,3.44
2023-01-19T10:49:29.371Z,3.30
2023-01-19T10:51:58.226Z,3.16
2023-01-19T10:54:27.491Z,3.09
2023-01-19T10:57:01.415Z,3.03
2023-01-19T10:59:53.996Z,3.10
2023-01-19T11:02:22.725Z,2.96
2023-01-19T11:04:52.889Z,2.81
2023-01-19T11:07:25.791Z,2.77
2023-01-19T11:10:18.326Z,2.64
2023-01-19T11:13:03.903Z,2.65
2023-01-19T11:15:35.910Z,2.40
2023-01-19T11:18:08.694Z,2.46
2023-01-19T11:20:53.989Z,2.51
2023-01-19T11:23:34.329Z,2.45
2023-01-19T11:26:05.268Z,2.57
2023-01-19T11:28:36.316Z,2.68
2023-01-19T11:31:16.220Z,2.77
2023-01-19T11:33:42.800Z,2.68
2023-01-19T11:36:28.748Z,2.65
2023-01-19T11:39:04.268Z,2.78
2023-01-19T11:41:35.817Z,2.83
2023-01-19T11:44:18.779Z,2.75
2023-01-19T11:46:50.187Z,2.66
2023-01-19T11:49:32.583Z,2.69
2023-01-19T11:52:06.818Z,2.80
2023-01-19T11:54:47.953Z,2.96
2023-01-19T11:57:17.232Z,2.80
2023-01-19T11:59:44.676Z,2.95
2023-01-19T12:02:23.830Z,2.91
2023-01-19T12:04:52.238Z,2.86
2023-01-19T12:07:26.230Z,2.83
2023-01-19T12:09:59.910Z,2.96
2023-01-19T12:12:32.184Z,3.02
2023-01-19T12:15:16.571Z,2.77
2023-01-19T12:17:50.394Z,2.74
2023-01-19T12:20:40.835Z,2.76
2023-01-19T12:23:13.782Z,2.70
2023-01-19T12:26:16.710Z,2.86
2023-01-19T12:28:48.516Z,2.84
2023-01-19T12:31:25.930Z,2.91
2023-01-19T12:33:57.545Z,2.78
2023-01-19T12:36:26.996Z,2.78
2023-01-19T12:38:58.205Z,2.54
2023-01-19T12:41:40.193Z,2.60
2023-01-19T12:44:13.934Z,2.68
2023-01-19T12:47:03.929Z,2.86
2023-01-19T12:49:41.914Z,2.73
2023-01-19T12:52:19.179Z,2.94
2023-01-19T12:55:15.216Z,3.06
2023-01-19T12:57:57.473Z,2.93
2023-01-19T13:00:23.970Z,3.00
2023-01-19T13:02:53.493Z,3.03
2023-01-19T13:05:33.141Z,3.23
2023-01-19T13:08:03.234Z,3.35
2023-01-19T13:11:09.534Z,3.41
2023-01-19T13:13:38.424Z,3.47
2023-01-19T13:16:20.332Z,3.27
2023-01-19T13:19:05.544Z,3.02
2023-01-19T13:21:36.099Z,2.93
2023-01-19T13:24:06.150Z,2.89
2023-01-19T13:26:43.178Z,2.92
2023-01-19T13:29:33.140Z,2.92
2023-01-19T13:32:02.938Z,2.96
2023-01-19T13:34:43.999Z,2.95
2023-01-19T13:37:18.743Z,3.06
2023-01-19T13:39:52.053Z,2.95
2023-01-19T13:42:40.721Z,2.79
2023-01-19T13:45:35.361Z,2.80
2023-01-19T13:48:09.200Z,2.65
2023-01-19T13:50:39.262Z,2.65
2023-01-19T13:53:18.988Z,2.70
2023-01-19T13:55:45.731Z,2.62
2023-01-19T13:58:22.496Z,2.45
2023-01-19T14:00:49.164Z,2.51
2023-01-19T14:03:15.734Z,2.43
2023-01-19T14:05:43.420Z,2.43
2023-01-19T14:08:12.961Z,2.36
2023-01-19T14:10:39.509Z,2.36
2023-01-19T14:13:20.982Z,2.43
2023-01-19T14:15:52.102Z,2.58
2023-01-19T14:18:21.330Z,2.57
2023-01-19T14:20:53.758Z,2.53
2023-01-19T14:23:38.334Z,2.38
2023-01-19T14:26:08.063Z,2.55
2023-01-19T14:28:39.468Z,2.56
2023-01-19T14:31:20.732Z,2.55
2023-01-19T14:33:50.899Z,2.45
2023-01-19T14:36:29.783Z,2.47
2023-01-19T14:39:00.867Z,2.54
2023-01-19T14:41:35.096Z,2.55
2023-01-19T14:44:03.209Z,2.62
2023-01-19T14:46:33.163Z,2.65
2023-01-19T14:49:04.253Z,2.62
2023-01-19T14:51:31.715Z,2.61
2023-01-19T14:54:03.268Z,2.40
2023-01-19T14:56:34.872Z,2.46
2023-01-19T14:59:03.025Z,2.41
2023-01-19T15:01:31.093Z,2.39
2023-01-19T15:03:58.520Z,2.20
2023-01-19T15:06:26.656Z,2.28
2023-01-19T15:08:56.417Z,2.23
2023-01-19T15:11:27.224Z,2.29
2023-01-19T15:13:55.380Z,2.26
2023-01-19T15:16:23.396Z,2.19
2023-01-19T15:18:50.074Z,2.17
2023-01-19T15:21:20.202Z,2.18
2023-01-19T15:23:48.725Z,2.09
2023-01-19T15:26:24.092Z,2.10
2023-01-19T15:28:53.683Z,2.06
2023-01-19T15:31:23.691Z,2.04
2023-01-19T15:33:50.538Z,2.02
2023-01-19T15:36:22.123Z,1.96
2023-01-19T15:38:51.098Z,1.93
2023-01-19T15:41:31.515Z,1.92
2023-01-19T15:43:59.009Z,1.88
2023-01-19T15:46:26.459Z,1.92
2023-01-19T15:48:54.106Z,1.91
2023-01-19T15:51:22.838Z,1.90
2023-01-19T15:53:49.742Z,1.92
2023-01-19T15:56:23.483Z,1.94
2023-01-19T15:58:50.977Z,1.90
2023-01-19T16:01:21.424Z,1.86
2023-01-19T16:03:48.197Z,1.93
2023-01-19T16:06:16.348Z,1.93
2023-01-19T16:08:42.967Z,1.91
2023-01-19T16:11:12.630Z,1.87
2023-01-19T16:13:39.739Z,1.84
2023-01-19T16:16:12.500Z,1.87
2023-01-19T16:18:39.199Z,1.83
2023-01-19T16:21:06.037Z,1.87
2023-01-19T16:23:32.867Z,1.87
2023-01-19T16:26:04.931Z,1.88
2023-01-19T16:28:34.314Z,1.82
2023-01-19T16:31:01.153Z,1.86
2023-01-19T16:33:27.843Z,1.85
2023-01-19T16:35:54.417Z,1.91
2023-01-19T16:38:23.340Z,1.89
2023-01-19T16:40:49.953Z,1.91
2023-01-19T16:43:16.527Z,1.91
2023-01-19T16:46:01.734Z,1.88
2023-01-19T16:48:28.822Z,1.90
2023-01-19T16:51:04.998Z,1.88
2023-01-19T16:53:34.809Z,1.93
2023-01-19T16:56:06.539Z,1.85
2023-01-19T16:58:33.808Z,1.90
2023-01-19T17:01:00.524Z,1.84
2023-01-19T17:03:27.137Z,1.84
2023-01-19T17:05:53.908Z,1.89
2023-01-19T17:08:22.920Z,1.92
2023-01-19T17:10:51.438Z,1.86
2023-01-19T17:13:18.123Z,1.81
2023-01-19T17:15:44.727Z,1.83
2023-01-19T17:18:11.336Z,1.86
2023-01-19T17:20:37.935Z,1.84
2023-01-19T17:23:05.714Z,1.86
2023-01-19T17:25:32.283Z,1.78
2023-01-19T17:28:08.682Z,1.73
2023-01-19T17:30:36.529Z,1.80
2023-01-19T17:33:05.238Z,1.76
2023-01-19T17:35:34.698Z,1.78
2023-01-19T17:38:01.334Z,1.73
2023-01-19T17:40:29.546Z,1.79
2023-01-19T17:42:56.118Z,1.72
2023-01-19T17:45:22.694Z,1.75
2023-01-19T17:47:50.481Z,1.84
2023-01-19T17:50:25.102Z,1.64
2023-01-19T17:52:51.811Z,1.75
2023-01-19T17:55:22.360Z,1.72
2023-01-19T17:57:48.972Z,1.70
2023-01-19T18:00:24.724Z,1.82
2023-01-19T18:02:53.684Z,1.73
2023-01-19T18:05:21.779Z,1.68
2023-01-19T18:07:48.330Z,1.65
2023-01-19T18:10:18.995Z,1.68
2023-01-19T18:12:47.993Z,1.69
2023-01-19T18:15:16.834Z,1.70
2023-01-19T18:17:50.994Z,1.69
2023-01-19T18:20:17.637Z,1.67
2023-01-19T18:22:44.284Z,1.69
2023-01-19T18:25:13.174Z,1.66
2023-01-19T18:27:42.159Z,1.67
2023-01-19T18:30:11.363Z,1.63
2023-01-19T18:32:38.175Z,1.66
2023-01-19T18:35:05.273Z,1.64
2023-01-19T18:37:31.856Z,1.63
2023-01-19T18:40:02.130Z,1.67
2023-01-19T18:42:31.672Z,1.62
2023-01-19T18:44:58.238Z,1.66
2023-01-19T18:47:24.886Z,1.67
2023-01-19T18:49:53.751Z,1.67
2023-01-19T18:52:20.747Z,1.61
2023-01-19T18:54:52.534Z,1.64
2023-01-19T18:57:19.095Z,1.60
2023-01-19T18:59:47.252Z,1.68
2023-01-19T19:02:16.534Z,1.66
2023-01-19T19:04:45.369Z,1.56
2023-01-19T19:07:13.467Z,1.53
2023-01-19T19:09:42.933Z,1.49
2023-01-19T19:12:09.725Z,1.52
2023-01-19T19:14:36.421Z,1.55
2023-01-19T19:17:03.084Z,1.46
2023-01-19T19:19:29.709Z,1.43
2023-01-19T19:21:56.736Z,1.39
2023-01-19T19:24:25.836Z,1.40
2023-01-19T19:26:54.729Z,1.34
2023-01-19T19:29:24.747Z,1.35
2023-01-19T19:31:51.419Z,1.31
2023-01-19T19:34:20.475Z,1.35
2023-01-19T19:36:47.042Z,1.29
2023-01-19T19:39:13.671Z,1.28
2023-01-19T19:41:40.409Z,1.22
2023-01-19T19:44:07.109Z,1.32
2023-01-19T19:46:33.672Z,1.25
2023-01-19T19:49:00.320Z,1.24
2023-01-19T19:51:29.724Z,1.27
2023-01-19T19:53:58.880Z,1.22
2023-01-19T19:56:28.059Z,1.29
2023-01-19T19:58:56.564Z,1.24
2023-01-19T20:01:28.458Z,1.27
2023-01-19T20:03:57.363Z,1.32
2023-01-19T20:06:25.641Z,1.20
2023-01-19T20:08:54.279Z,1.28
2023-01-19T20:11:25.365Z,1.27
2023-01-19T20:13:52.004Z,1.24
2023-01-19T20:16:26.121Z,1.16
2023-01-19T20:18:58.594Z,1.17
2023-01-19T20:21:28.120Z,1.16
2023-01-19T20:24:01.646Z,1.02
2023-01-19T20:26:31.526Z,1.07
2023-01-19T20:29:02.282Z,1.10
2023-01-19T20:31:31.622Z,1.06
2023-01-19T20:34:00.579Z,1.13
2023-01-19T20:36:27.496Z,1.04
2023-01-19T20:38:57.651Z,1.04
2023-01-19T20:41:25.632Z,1.06
2023-01-19T20:43:53.034Z,1.05
2023-01-19T20:46:21.980Z,0.99
2023-01-19T20:48:52.903Z,1.07
2023-01-19T20:51:20.396Z,0.97
2023-01-19T20:53:48.581Z,0.91
2023-01-19T20:56:15.747Z,0.84
2023-01-19T20:58:42.542Z,0.79
2023-01-19T21:01:13.525Z,0.83
2023-01-19T21:03:40.762Z,0.76
2023-01-19T21:06:08.250Z,0.74
2023-01-19T21:08:34.934Z,0.71
2023-01-19T21:11:05.161Z,0.74
2023-01-19T21:13:32.178Z,0.79
2023-01-19T21:18:42.840Z,0.63
2023-01-19T21:21:20.870Z,0.62
2023-01-19T21:24:03.117Z,0.65
2023-01-19T21:26:30.503Z,0.69
2023-01-19T21:28:58.536Z,0.69
2023-01-19T21:31:27.507Z,0.72
2023-01-19T21:33:54.723Z,0.69
2023-01-19T21:36:22.548Z,0.66
2023-01-19T21:38:51.432Z,0.59
2023-01-19T21:41:18.917Z,0.61
2023-01-19T21:43:46.196Z,0.65
2023-01-19T21:46:17.173Z,0.65
2023-01-19T21:48:44.979Z,0.70
2023-01-19T21:51:14.968Z,0.87
2023-01-19T21:53:41.774Z,0.85
2023-01-19T21:56:12.386Z,0.78
2023-01-19T21:58:38.967Z,0.79
2023-01-19T22:01:21.274Z,0.73
2023-01-19T22:03:49.423Z,0.73
2023-01-19T22:06:17.219Z,0.76
2023-01-19T22:08:44.854Z,0.78
2023-01-19T22:11:13.345Z,0.87
2023-01-19T22:13:40.569Z,0.72
2023-01-19T22:16:10.883Z,0.73
2023-01-19T22:18:40.103Z,0.82
2023-01-19T22:21:11.392Z,0.86
2023-01-19T22:23:38.594Z,0.80
2023-01-19T22:26:05.709Z,0.79
2023-01-19T22:28:32.777Z,0.82
2023-01-19T22:31:17.456Z,0.76
2023-01-19T22:33:49.382Z,0.91
2023-01-19T22:36:27.333Z,0.79
2023-01-19T22:38:57.477Z,0.80
2023-01-19T22:41:26.949Z,0.93
2023-01-19T22:43:58.360Z,0.82
2023-01-19T22:46:27.366Z,0.85
2023-01-19T22:48:55.516Z,0.88
2023-01-19T22:51:26.119Z,0.88
2023-01-19T22:53:55.311Z,0.96
2023-01-19T22:56:23.991Z,0.93
2023-01-19T22:58:51.520Z,0.85
2023-01-19T23:01:21.357Z,0.93
2023-01-19T23:03:48.711Z,0.87
2023-01-19T23:06:19.992Z,0.82
2023-01-19T23:08:46.870Z,0.91
2023-01-19T23:11:16.746Z,0.87
2023-01-19T23:13:43.794Z,0.89
2023-01-19T23:16:13.267Z,0.84
2023-01-19T23:18:40.311Z,0.86
2023-01-19T23:21:10.533Z,0.77
2023-01-19T23:23:39.943Z,0.87
2023-01-19T23:26:23.005Z,0.89
2023-01-19T23:28:57.952Z,0.92
2023-01-19T23:31:34.179Z,0.88
2023-01-19T23:34:08.900Z,0.95
2023-01-19T23:36:37.789Z,0.91
2023-01-19T23:39:09.868Z,0.95
2023-01-19T23:41:36.652Z,0.83
2023-01-19T23:44:03.892Z,0.96
2023-01-19T23:46:30.778Z,0.89
2023-01-19T23:48:57.642Z,0.85
2023-01-19T23:51:26.944Z,0.84
2023-01-19T23:53:53.795Z,0.89
2023-01-19T23:56:36.710Z,0.82
2023-01-19T23:59:06.434Z,0.84
